This is the latest recevied weather packets stored in our database for station/object N2XGL-1. If no packets are shown the sender has not sent any weather packets the latest 10 day(s).
| Time | Temp. | Humidity | Pressure | Rain* | Wind** | Luminosity | Snow |
|---|---|---|---|---|---|---|---|
| 1777915064 | 18.33° C | 40% | 1000.3 hPa | 0 mm | - | - | - |
| 1777914561 | 18.33° C | 36% | 1000.3 hPa | 0 mm | - | - | - |
| 1777914014 | 18.33° C | 34% | 1000.3 hPa | 0 mm | - | - | - |
| 1777913418 | 18.33° C | 36% | 1000.3 hPa | 0 mm | - | - | - |
| 1777912899 | 17.78° C | 35% | 1000.3 hPa | 0 mm | - | - | - |
| 1777912304 | 17.78° C | 33% | 1000.2 hPa | 0 mm | - | - | - |
| 1777911911 | 17.78° C | 36% | 1000.2 hPa | 0 mm | - | - | - |
| 1777911773 | 17.78° C | 36% | 1000.2 hPa | 0 mm | - | - | - |
| 1777911309 | 17.78° C | 37% | 1000.4 hPa | 0 mm | - | - | - |
| 1777911284 | 17.78° C | 34% | 1000.3 hPa | 0 mm | - | - | - |
| 1777910753 | 17.78° C | 37% | 1000.4 hPa | 0 mm | - | - | - |
| 1777910227 | 17.78° C | 36% | 1000.3 hPa | 0 mm | - | - | - |
| 1777909819 | 17.22° C | 38% | 1000.1 hPa | 0 mm | - | - | - |
| 1777909738 | 17.22° C | 38% | 1000.1 hPa | 0 mm | - | - | - |
| 1777909254 | 17.22° C | 38% | 1000.1 hPa | 0 mm | - | - | - |
| 1777908243 | 16.67° C | 36% | 1000.3 hPa | 0 mm | - | - | - |
| 1777907764 | 16.67° C | 35% | 1000.3 hPa | 0 mm | - | - | - |
| 1777907204 | 16.11° C | 35% | 1000.4 hPa | 0 mm | - | - | - |
| 1777906681 | 15.56° C | 38% | 1000.3 hPa | 0 mm | - | - | - |
| 1777906089 | 13.89° C | 40% | 1000.4 hPa | 0 mm | - | - | - |
| 1777905492 | 12.78° C | 48% | 1000.5 hPa | 0 mm | - | - | - |
| 1777904913 | 11.67° C | 58% | 1000.4 hPa | 0 mm | - | - | - |
| 1777904424 | 11.11° C | 60% | 1000.4 hPa | 0 mm | - | - | - |
| 1777904385 | 11.11° C | 60% | 1000.4 hPa | 0 mm | - | - | - |
| 1777903878 | 10.56° C | 63% | 1000.5 hPa | 0 mm | - | - | - |
* Rain latest hour (hover to see other rain measurements)
** Current wind speed in m/s (hover to see current wind gust speed)